Time;durP1;ratioP1;P1;durP2;ratioP2;P2;SDS_P1;SDS_P2;PMS_P1;PMS_P2;Temp;Humidity;BMP_temperature;BMP_pressure;BME280_temperature;BME280_humidity;BME280_pressure;Samples;Min_cycle;Max_cycle;Signal;HPM_P1;HPM_P2
2021/03/08 00:00:00;;;;;;;15.48;11.45;;;21.60;26.00;;;;;;4948101;29;21811;-68
2021/03/08 00:02:27;;;;;;;16.90;12.05;;;21.70;26.10;;;;;;4949303;29;20591;-67
2021/03/08 00:04:55;;;;;;;14.38;10.52;;;21.60;26.10;;;;;;4951471;29;20728;-67
2021/03/08 00:07:39;;;;;;;16.65;12.15;;;21.60;26.10;;;;;;4952855;29;20063;-69
2021/03/08 00:10:07;;;;;;;18.05;12.02;;;21.60;26.10;;;;;;4950979;29;20055;-68
2021/03/08 00:12:33;;;;;;;15.25;11.20;;;21.60;26.10;;;;;;4951073;29;20057;-68
2021/03/08 00:15:07;;;;;;;16.40;11.90;;;21.60;26.10;;;;;;4951511;29;20481;-68
2021/03/08 00:17:34;;;;;;;15.05;11.60;;;21.60;26.10;;;;;;4936121;29;20086;-67
2021/03/08 00:20:17;;;;;;;15.18;10.90;;;21.60;26.10;;;;;;4948533;28;20059;-67
2021/03/08 00:22:45;;;;;;;16.92;11.60;;;21.60;26.10;;;;;;4935764;29;20078;-67
2021/03/08 00:25:27;;;;;;;14.95;11.15;;;21.60;26.10;;;;;;4967928;28;20252;-68
2021/03/08 00:27:54;;;;;;;16.23;11.55;;;21.60;26.10;;;;;;5010148;28;20058;-67
2021/03/08 00:30:25;;;;;;;;;;;21.60;26.10;;;;;;5008611;28;20049;-68
2021/03/08 00:32:52;;;;;;;18.48;11.75;;;21.60;26.10;;;;;;5009439;28;19930;-67
2021/03/08 00:35:23;;;;;;;16.38;11.82;;;21.60;26.10;;;;;;5008495;28;20046;-68
2021/03/08 00:37:50;;;;;;;16.75;11.90;;;21.60;26.10;;;;;;5008897;28;20116;-68
2021/03/08 00:40:35;;;;;;;15.73;11.52;;;21.60;26.20;;;;;;4994212;28;20053;-68
2021/03/08 00:43:16;;;;;;;15.38;11.10;;;21.60;26.20;;;;;;5007216;28;20060;-68
2021/03/08 00:45:43;;;;;;;15.00;10.48;;;21.60;26.20;;;;;;5008863;28;20091;-68
2021/03/08 00:48:10;;;;;;;17.20;11.48;;;21.50;26.20;;;;;;5008328;28;20042;-67
2021/03/08 00:50:41;;;;;;;15.38;10.35;;;21.50;26.20;;;;;;5008210;28;20041;-68
2021/03/08 00:53:08;;;;;;;14.65;10.85;;;21.60;26.20;;;;;;5009175;28;20266;-68
2021/03/08 00:55:41;;;;;;;15.10;10.68;;;21.60;26.20;;;;;;5007910;28;20101;-68
2021/03/08 00:58:08;;;;;;;14.45;10.52;;;21.50;26.30;;;;;;5008758;28;20088;-68
2021/03/08 01:00:35;;;;;;;16.77;11.35;;;21.60;26.20;;;;;;4990965;28;20212;-68
2021/03/08 01:03:02;;;;;;;15.25;10.80;;;21.50;26.20;;;;;;5008183;28;20050;-67
2021/03/08 01:05:31;;;;;;;14.18;10.18;;;21.50;26.20;;;;;;5008330;28;20049;-70
2021/03/08 01:07:58;;;;;;;17.40;10.90;;;21.50;26.20;;;;;;5008329;28;20139;-68
2021/03/08 01:10:39;;;;;;;14.63;10.95;;;21.50;26.20;;;;;;5008188;28;20053;-67
2021/03/08 01:13:06;;;;;;;14.23;9.90;;;21.50;26.20;;;;;;5008283;28;20100;-67
2021/03/08 01:15:32;;;;;;;14.77;10.63;;;21.50;26.20;;;;;;5008633;28;20058;-67
2021/03/08 01:18:15;;;;;;;13.50;10.38;;;21.50;26.20;;;;;;5008305;28;20057;-67
2021/03/08 01:20:47;;;;;;;14.77;10.05;;;21.50;26.20;;;;;;5008012;28;20204;-68
2021/03/08 01:23:13;;;;;;;14.20;10.13;;;21.50;26.20;;;;;;5008339;28;20127;-68
2021/03/08 01:25:41;;;;;;;15.18;9.63;;;21.50;26.20;;;;;;5007664;28;20119;-67
2021/03/08 01:28:13;;;;;;;14.30;10.13;;;21.50;26.20;;;;;;5008136;28;20622;-67
2021/03/08 01:30:50;;;;;;;15.38;10.27;;;21.50;26.20;;;;;;5008643;28;20052;-68
2021/03/08 01:33:18;;;;;;;12.93;9.82;;;21.50;26.20;;;;;;5009042;28;20583;-68
2021/03/08 01:36:05;;;;;;;14.07;10.05;;;21.40;26.20;;;;;;4928067;29;20123;-68
2021/03/08 01:38:32;;;;;;;14.23;10.55;;;21.40;26.20;;;;;;4928077;29;20102;-67
2021/03/08 01:41:05;;;;;;;12.73;9.43;;;21.40;26.20;;;;;;4928336;29;20087;-67
2021/03/08 01:43:31;;;;;;;14.32;10.45;;;21.40;26.20;;;;;;4927090;29;20335;-68
2021/03/08 01:46:12;;;;;;;13.95;9.88;;;21.40;26.20;;;;;;4926052;29;20103;-68
2021/03/08 01:48:39;;;;;;;14.25;10.27;;;21.40;26.20;;;;;;4927496;29;20498;-68
2021/03/08 01:51:06;;;;;;;15.10;10.02;;;21.40;26.20;;;;;;4927725;29;20063;-67
2021/03/08 01:53:35;;;;;;;14.02;10.07;;;21.40;26.20;;;;;;4928493;29;20533;-68
2021/03/08 01:56:09;;;;;;;12.40;9.88;;;21.40;26.20;;;;;;4927749;29;20103;-68
2021/03/08 01:58:36;;;;;;;13.10;9.63;;;21.40;26.20;;;;;;4927972;29;20544;-68
2021/03/08 02:01:09;;;;;;;12.02;9.32;;;21.40;26.20;;;;;;4992670;28;20347;-68
2021/03/08 02:03:59;;;;;;;12.75;9.52;;;21.40;26.30;;;;;;4993519;28;20050;-68
2021/03/08 02:06:27;;;;;;;13.52;9.45;;;21.40;26.30;;;;;;5007748;28;20292;-69
2021/03/08 02:09:08;;;;;;;14.00;9.35;;;21.40;26.30;;;;;;5006609;28;20077;-68
2021/03/08 02:11:38;;;;;;;14.80;9.07;;;21.40;26.30;;;;;;5007350;28;20271;-68
2021/03/08 02:14:44;;;;;;;13.07;8.82;;;21.40;26.30;;;;;;4998229;28;20061;-67
2021/03/08 02:17:17;;;;;;;12.52;9.38;;;21.40;26.30;;;;;;5008254;28;20073;-67
2021/03/08 02:20:10;;;;;;;13.95;9.85;;;21.40;26.30;;;;;;5007906;28;20874;-67
2021/03/08 02:23:13;;;;;;;13.40;8.98;;;21.40;26.30;;;;;;5008172;28;20057;-68
2021/03/08 02:26:10;;;;;;;11.68;8.95;;;21.30;26.30;;;;;;5006299;28;20104;-67
2021/03/08 02:29:14;;;;;;;11.98;9.18;;;21.40;26.30;;;;;;5007794;28;20538;-68
2021/03/08 02:31:47;;;;;;;13.15;9.13;;;21.30;26.30;;;;;;4993009;28;20427;-67
2021/03/08 02:34:26;;;;;;;13.32;9.70;;;21.30;26.30;;;;;;5007839;28;20053;-69
2021/03/08 02:37:16;;;;;;;12.75;8.73;;;21.30;26.30;;;;;;5006507;28;20137;-67
2021/03/08 02:39:47;;;;;;;12.10;8.60;;;21.30;26.30;;;;;;5007005;28;20050;-67
2021/03/08 02:42:23;;;;;;;12.55;8.57;;;21.30;26.30;;;;;;5007736;28;20112;-68
2021/03/08 02:44:55;;;;;;;11.30;8.85;;;21.30;26.30;;;;;;5021825;28;20081;-68
2021/03/08 02:47:24;;;;;;;11.63;8.98;;;21.30;26.30;;;;;;5007471;28;20131;-68
2021/03/08 02:50:06;;;;;;;11.95;8.07;;;21.30;26.30;;;;;;5007912;28;20270;-68
2021/03/08 02:52:59;;;;;;;10.70;8.35;;;21.30;26.30;;;;;;5007574;28;20462;-68
2021/03/08 02:55:42;;;;;;;10.23;8.48;;;21.30;26.30;;;;;;5013061;28;20502;-68
2021/03/08 02:58:19;;;;;;;11.75;8.95;;;21.30;26.30;;;;;;5013959;28;20558;-68
2021/03/08 03:01:02;;;;;;;12.18;8.48;;;21.30;26.30;;;;;;5014178;28;20057;-67
2021/03/08 03:03:55;;;;;;;11.15;7.85;;;21.30;26.30;;;;;;4933079;29;20251;-67
2021/03/08 03:06:38;;;;;;;10.20;8.25;;;21.30;26.30;;;;;;4933531;29;20047;-68
2021/03/08 03:09:12;;;;;;;11.13;7.93;;;21.30;26.40;;;;;;4933104;29;20119;-68
2021/03/08 03:11:57;;;;;;;10.27;8.55;;;21.30;26.40;;;;;;4876870;29;20052;-70
2021/03/08 03:14:24;;;;;;;;;;;21.30;26.40;;;;;;4876818;29;20095;-68
2021/03/08 03:17:05;;;;;;;9.80;7.93;;;21.30;26.40;;;;;;4876472;29;20027;-67
2021/03/08 03:19:36;;;;;;;10.30;7.32;;;21.30;26.40;;;;;;4875248;29;20053;-68
2021/03/08 03:22:07;;;;;;;10.27;7.68;;;21.30;26.40;;;;;;4971265;28;20456;-68
2021/03/08 03:24:53;;;;;;;11.35;8.00;;;21.30;26.40;;;;;;4963263;28;20047;-67
2021/03/08 03:27:22;;;;;;;11.75;8.10;;;21.30;26.40;;;;;;4971165;28;20548;-67
2021/03/08 03:29:51;;;;;;;9.52;7.43;;;21.30;26.40;;;;;;4970109;28;20077;-70
2021/03/08 03:32:32;;;;;;;11.27;8.02;;;21.30;26.40;;;;;;4970820;28;20074;-68
2021/03/08 03:35:03;;;;;;;11.00;8.13;;;21.30;26.40;;;;;;4971790;28;20043;-67
2021/03/08 03:37:34;;;;;;;10.80;7.65;;;21.30;26.40;;;;;;4971422;28;20051;-68
2021/03/08 03:40:00;;;;;;;10.82;7.90;;;21.30;26.40;;;;;;4971191;28;20057;-67
2021/03/08 03:42:31;;;;;;;9.65;7.90;;;21.30;26.40;;;;;;4989591;28;20053;-67
2021/03/08 03:45:20;;;;;;;11.75;7.65;;;21.30;26.40;;;;;;5013365;28;20271;-68
2021/03/08 03:47:47;;;;;;;10.55;7.88;;;21.30;26.40;;;;;;5012868;28;20136;-71
2021/03/08 03:50:18;;;;;;;10.30;8.18;;;21.30;26.40;;;;;;5013663;28;20391;-68
2021/03/08 03:52:48;;;;;;;10.82;7.80;;;21.30;26.40;;;;;;5013139;28;20136;-68
2021/03/08 03:55:24;;;;;;;9.98;7.38;;;21.30;26.40;;;;;;5013239;28;20046;-68
2021/03/08 03:58:20;;;;;;;9.32;7.22;;;21.30;26.40;;;;;;5013790;28;20058;-67
2021/03/08 04:01:02;;;;;;;10.03;7.33;;;21.30;26.40;;;;;;4996638;28;20274;-68
2021/03/08 04:03:46;;;;;;;10.55;7.80;;;21.30;26.40;;;;;;5012706;28;20591;-68
2021/03/08 04:06:40;;;;;;;8.52;6.85;;;21.30;26.40;;;;;;5007784;28;20137;-67
2021/03/08 04:09:08;;;;;;;11.10;8.35;;;21.20;26.40;;;;;;4991282;28;20514;-68
2021/03/08 04:11:43;;;;;;;9.10;7.07;;;21.20;26.40;;;;;;5007831;28;20054;-68
2021/03/08 04:14:13;;;;;;;9.88;7.57;;;21.30;26.40;;;;;;5008813;28;20142;-66
2021/03/08 04:16:43;;;;;;;10.50;7.30;;;21.20;26.40;;;;;;5009731;28;20104;-68
2021/03/08 04:19:13;;;;;;;10.00;7.10;;;21.20;26.40;;;;;;5009286;28;20088;-67
2021/03/08 04:21:42;;;;;;;9.85;7.22;;;21.20;26.40;;;;;;5009595;28;20084;-68
2021/03/08 04:24:31;;;;;;;9.35;7.53;;;21.20;26.40;;;;;;5005111;28;20054;-68
2021/03/08 04:27:06;;;;;;;11.57;7.65;;;21.20;26.40;;;;;;5009082;28;20073;-68
2021/03/08 04:29:38;;;;;;;9.18;6.88;;;21.20;26.40;;;;;;4992042;28;20049;-68
2021/03/08 04:32:21;;;;;;;10.27;7.38;;;21.30;26.50;;;;;;5008179;28;20050;-68
2021/03/08 04:34:54;;;;;;;9.02;6.43;;;21.20;26.40;;;;;;5008819;28;20050;-67
2021/03/08 04:37:21;;;;;;;9.40;6.97;;;21.30;26.50;;;;;;5008964;28;20133;-68
2021/03/08 04:40:03;;;;;;;9.70;6.65;;;21.30;26.40;;;;;;4947618;29;20453;-68
2021/03/08 04:42:43;;;;;;;7.60;6.38;;;21.30;26.40;;;;;;4940382;28;20590;-68
2021/03/08 04:45:31;;;;;;;10.30;7.32;;;21.20;26.40;;;;;;4954301;28;20054;-68
2021/03/08 04:48:01;;;;;;;9.68;7.18;;;21.30;26.50;;;;;;4948295;28;20051;-68
2021/03/08 04:50:29;;;;;;;7.90;6.95;;;21.20;26.40;;;;;;4958899;28;20042;-68
2021/03/08 04:53:10;;;;;;;8.80;7.00;;;21.20;26.40;;;;;;4917628;29;20711;-67
2021/03/08 04:55:53;;;;;;;9.48;7.32;;;21.20;26.40;;;;;;4875504;29;20052;-68
2021/03/08 04:58:20;;;;;;;8.45;6.65;;;21.20;26.40;;;;;;4916829;29;20593;-67
2021/03/08 05:00:47;;;;;;;9.25;6.97;;;21.30;26.50;;;;;;4927496;29;20079;-68
2021/03/08 05:03:15;;;;;;;8.25;6.90;;;21.20;26.40;;;;;;4912481;29;20452;-68
2021/03/08 05:05:43;;;;;;;8.65;6.70;;;21.20;26.40;;;;;;4928615;29;20126;-68
2021/03/08 05:08:23;;;;;;;8.15;6.30;;;21.20;26.40;;;;;;4927328;29;20048;-67
2021/03/08 05:10:52;;;;;;;9.07;7.23;;;21.20;26.40;;;;;;4968775;28;20130;-68
2021/03/08 05:13:21;;;;;;;10.10;6.72;;;21.20;26.40;;;;;;4986220;28;20046;-67
2021/03/08 05:16:03;;;;;;;10.90;7.35;;;21.20;26.40;;;;;;4983440;28;20287;-68
2021/03/08 05:18:31;;;;;;;9.70;7.43;;;21.20;26.40;;;;;;4975288;28;20358;-68
2021/03/08 05:21:01;;;;;;;8.57;6.45;;;21.20;26.40;;;;;;4941472;28;20281;-68
2021/03/08 05:23:29;;;;;;;9.73;6.82;;;21.20;26.40;;;;;;4975179;28;20392;-67
2021/03/08 05:26:05;;;;;;;8.23;6.55;;;21.20;26.40;;;;;;5008050;28;20073;-68
2021/03/08 05:28:34;;;;;;;7.40;6.38;;;21.20;26.40;;;;;;5007903;28;20081;-68
2021/03/08 05:31:09;;;;;;;8.00;6.63;;;21.20;26.40;;;;;;5007265;28;20056;-67
2021/03/08 05:33:42;;;;;;;10.38;7.45;;;21.20;26.40;;;;;;5007171;28;20042;-68
2021/03/08 05:36:11;;;;;;;7.07;5.97;;;21.30;26.40;;;;;;5007881;28;20061;-70
2021/03/08 05:38:55;;;;;;;8.63;6.60;;;21.20;26.40;;;;;;5007563;28;20046;-68
2021/03/08 05:41:30;;;;;;;7.95;6.43;;;21.30;26.40;;;;;;5006926;28;20089;-67
2021/03/08 05:44:04;;;;;;;8.68;6.10;;;21.20;26.30;;;;;;5006155;28;20085;-67
2021/03/08 05:47:12;;;;;;;7.28;6.50;;;21.20;26.30;;;;;;5001178;28;20479;-68
2021/03/08 05:50:23;;;;;;;8.98;6.70;;;21.30;26.40;;;;;;5001328;28;20049;-68
2021/03/08 05:53:26;;;;;;;7.93;6.35;;;21.20;26.30;;;;;;4998296;28;20072;-67
2021/03/08 05:56:45;;;;;;;7.03;5.93;;;21.30;26.40;;;;;;4983877;28;20049;-70
2021/03/08 05:59:42;;;;;;;8.13;6.20;;;21.30;26.40;;;;;;5004024;28;20480;-67
2021/03/08 06:02:54;;;;;;;9.18;6.18;;;21.30;26.40;;;;;;5004089;28;20100;-68
2021/03/08 06:06:05;;;;;;;11.50;7.78;;;21.30;26.30;;;;;;5001649;28;20061;-68
2021/03/08 06:08:40;;;;;;;8.07;6.93;;;21.30;26.30;;;;;;5000077;28;20565;-68
2021/03/08 06:11:15;;;;;;;8.07;6.80;;;21.30;26.30;;;;;;5005934;28;20077;-67
2021/03/08 06:13:56;;;;;;;10.50;7.20;;;21.30;26.20;;;;;;5005193;28;20476;-68
2021/03/08 06:16:36;;;;;;;9.57;7.50;;;21.30;26.10;;;;;;5000795;28;20084;-67
2021/03/08 06:19:27;;;;;;;9.32;7.15;;;21.40;26.10;;;;;;5000294;28;20077;-67
2021/03/08 06:22:00;;;;;;;9.77;7.35;;;21.40;26.10;;;;;;5006748;28;20050;-68
2021/03/08 06:24:27;;;;;;;9.93;6.80;;;21.40;26.10;;;;;;5004085;28;20111;-66
2021/03/08 06:27:10;;;;;;;8.93;7.43;;;21.50;26.20;;;;;;4996449;28;20101;-68
2021/03/08 06:29:38;;;;;;;9.68;7.45;;;21.50;26.20;;;;;;4996926;28;20173;-65
2021/03/08 06:32:23;;;;;;;11.70;7.82;;;21.60;26.30;;;;;;4983061;28;20049;-68
2021/03/08 06:34:51;;;;;;;10.98;8.40;;;21.60;26.20;;;;;;5000780;28;20042;-68
2021/03/08 06:37:38;;;;;;;9.30;7.93;;;21.70;26.20;;;;;;4997190;28;20058;-70
2021/03/08 06:40:22;;;;;;;10.80;8.55;;;21.80;26.20;;;;;;4999505;28;20057;-68
2021/03/08 06:42:52;;;;;;;10.40;8.00;;;21.80;26.10;;;;;;5000364;28;20608;-67
2021/03/08 06:45:24;;;;;;;11.13;8.85;;;21.90;26.10;;;;;;4997082;28;20088;-67
2021/03/08 06:47:51;;;;;;;9.77;8.40;;;22.00;26.10;;;;;;4998827;28;20038;-70
2021/03/08 06:50:25;;;;;;;14.57;10.05;;;22.00;26.00;;;;;;4986753;28;20084;-71
2021/03/08 06:56:57;;;;;;;13.95;9.73;;;22.20;26.70;;;;;;4996905;28;20073;-68
2021/03/08 07:00:03;;;;;;;14.38;10.45;;;22.30;26.80;;;;;;5001949;28;20608;-72
2021/03/08 07:02:44;;;;;;;14.25;11.10;;;22.40;26.80;;;;;;5010127;28;20620;-74
2021/03/08 07:05:29;;;;;;;16.00;11.90;;;22.50;26.80;;;;;;5006124;28;20116;-74
2021/03/08 07:08:03;;;;;;;15.95;12.25;;;22.50;26.20;;;;;;5000481;28;20049;-69
2021/03/08 07:10:37;;;;;;;18.05;13.13;;;22.60;26.30;;;;;;5003769;28;20112;-70
2021/03/08 07:13:24;;;;;;;17.42;13.25;;;22.70;26.60;;;;;;4998071;28;20042;-70
2021/03/08 07:15:56;;;;;;;18.90;13.20;;;22.80;26.50;;;;;;5001410;28;20054;-66
2021/03/08 07:18:38;;;;;;;19.63;14.57;;;22.90;26.50;;;;;;4997864;28;20056;-65
2021/03/08 07:21:19;;;;;;;20.02;14.45;;;22.90;26.50;;;;;;4997449;28;20056;-70
2021/03/08 07:24:12;;;;;;;21.80;15.48;;;23.00;26.50;;;;;;5000480;28;20592;-70
2021/03/08 07:26:56;;;;;;;20.33;14.85;;;23.10;26.50;;;;;;4991361;28;20645;-71
2021/03/08 07:29:24;;;;;;;17.90;14.77;;;23.10;26.50;;;;;;5008836;28;20056;-69
2021/03/08 07:32:11;;;;;;;19.30;14.80;;;23.20;26.50;;;;;;4938876;28;20454;-68
2021/03/08 07:34:51;;;;;;;20.92;16.30;;;23.30;26.50;;;;;;4942784;28;20105;-69
2021/03/08 07:37:25;;;;;;;20.30;14.98;;;23.40;26.40;;;;;;4941249;28;20109;-68
2021/03/08 07:39:59;;;;;;;25.02;14.57;;;23.40;26.30;;;;;;4975046;28;20415;-70
2021/03/08 07:42:41;;;;;;;20.90;15.63;;;23.40;26.30;;;;;;4977992;28;20509;-73
2021/03/08 07:45:09;;;;;;;19.38;14.18;;;23.50;26.30;;;;;;4978524;28;20499;-74
2021/03/08 07:47:47;;;;;;;21.45;14.65;;;23.50;26.20;;;;;;4978776;28;20134;-71
2021/03/08 07:50:28;;;;;;;18.48;13.75;;;23.60;26.20;;;;;;4966425;28;20051;-68
2021/03/08 07:53:29;;;;;;;19.05;14.85;;;23.60;26.10;;;;;;4959169;29;20055;-68
2021/03/08 07:56:08;;;;;;;16.73;12.52;;;23.70;26.10;;;;;;4958999;29;20094;-70
2021/03/08 07:58:58;;;;;;;18.35;13.18;;;23.80;26.10;;;;;;4958807;29;20047;-73
2021/03/08 08:01:26;;;;;;;15.85;12.63;;;23.80;25.90;;;;;;4950079;28;22020;-71
2021/03/08 08:03:54;;;;;;;19.02;14.27;;;23.80;25.60;;;;;;4995547;28;20085;-70
2021/03/08 08:06:24;;;;;;;16.85;12.73;;;23.90;25.50;;;;;;4999781;28;20049;-71
2021/03/08 08:08:53;;;;;;;18.45;13.45;;;23.90;25.40;;;;;;4985198;28;20049;-78
2021/03/08 08:11:21;;;;;;;16.00;12.18;;;23.90;25.30;;;;;;5002820;28;20427;-72
2021/03/08 08:13:56;;;;;;;20.45;12.95;;;24.00;25.20;;;;;;4997996;28;20813;-71
2021/03/08 08:16:30;;;;;;;18.58;13.25;;;24.10;25.30;;;;;;4999433;28;20602;-69
2021/03/08 08:19:06;;;;;;;16.65;12.60;;;24.10;25.30;;;;;;5003718;28;20145;-70
2021/03/08 08:21:37;;;;;;;15.13;12.20;;;24.20;25.20;;;;;;4990350;28;20452;-72
2021/03/08 08:24:26;;;;;;;16.15;12.52;;;24.20;25.10;;;;;;4993350;28;20508;-70
2021/03/08 08:27:12;;;;;;;16.17;12.40;;;24.30;25.00;;;;;;5002939;28;20037;-70
2021/03/08 08:30:03;;;;;;;15.43;12.00;;;24.30;24.90;;;;;;5005073;28;20046;-68
2021/03/08 08:32:52;;;;;;;14.93;11.63;;;24.40;24.90;;;;;;5003796;28;20046;-69
2021/03/08 08:35:34;;;;;;;14.32;11.70;;;24.40;24.80;;;;;;5001372;28;20610;-68
2021/03/08 08:38:20;;;;;;;14.82;11.65;;;24.40;24.70;;;;;;5000859;28;20687;-72
2021/03/08 08:41:30;;;;;;;17.02;11.55;;;24.50;24.80;;;;;;5000408;28;20056;-71
2021/03/08 08:44:28;;;;;;;15.55;11.48;;;24.60;24.80;;;;;;4998807;28;20095;-71
2021/03/08 08:47:19;;;;;;;15.73;10.82;;;24.60;24.80;;;;;;4996955;28;20064;-71
2021/03/08 08:49:58;;;;;;;16.25;10.80;;;24.70;24.80;;;;;;5001049;28;20108;-72
2021/03/08 08:52:56;;;;;;;12.43;10.43;;;24.70;24.60;;;;;;5000551;28;20046;-72
2021/03/08 08:55:47;;;;;;;13.18;10.07;;;24.80;24.60;;;;;;5001262;28;20530;-69
2021/03/08 08:58:27;;;;;;;20.60;11.35;;;24.90;24.50;;;;;;4988677;28;20499;-72
2021/03/08 09:01:26;;;;;;;14.68;10.10;;;24.90;24.50;;;;;;5003024;28;20045;-74
2021/03/08 09:03:59;;;;;;;13.52;10.45;;;24.90;24.60;;;;;;4993834;28;20068;-73
2021/03/08 09:07:00;;;;;;;12.43;9.93;;;25.00;24.50;;;;;;5002085;28;20050;-71
2021/03/08 09:09:47;;;;;;;;;;;25.00;24.50;;;;;;5002494;28;20068;-75
2021/03/08 09:12:40;;;;;;;11.90;9.32;;;25.10;24.40;;;;;;4994769;28;19926;-73
2021/03/08 09:15:30;;;;;;;10.57;8.80;;;25.20;24.40;;;;;;5001531;28;20045;-72
2021/03/08 09:18:03;;;;;;;12.80;9.13;;;25.30;24.40;;;;;;5001711;28;20628;-70
2021/03/08 09:20:33;;;;;;;13.32;10.32;;;25.30;24.30;;;;;;5011239;28;20046;-69
2021/03/08 09:27:04;;;;;;;10.18;8.48;;;25.50;24.40;;;;;;5004213;28;20050;-70
2021/03/08 09:29:31;;;;;;;11.68;9.20;;;25.50;24.20;;;;;;5010807;28;20108;-74
2021/03/08 09:32:00;;;;;;;12.30;9.25;;;25.60;24.20;;;;;;5004085;28;20430;-72
2021/03/08 09:34:37;;;;;;;12.18;9.57;;;25.60;24.20;;;;;;5021246;28;20132;-71
2021/03/08 09:37:06;;;;;;;13.50;9.60;;;25.70;24.10;;;;;;5018417;28;20134;-71
2021/03/08 09:44:01;;;;;;;;;;;25.80;24.10;;;;;;5009551;28;20109;-71
2021/03/08 09:50:42;;;;;;;15.30;10.35;;;25.90;24.10;;;;;;5001371;28;20103;-67
2021/03/08 09:53:21;;;;;;;9.98;8.32;;;25.90;23.40;;;;;;4996320;28;20038;-68
2021/03/08 09:56:18;;;;;;;9.80;8.80;;;25.80;23.60;;;;;;4997938;28;20527;-72
2021/03/08 09:58:46;;;;;;;11.90;9.52;;;25.80;23.70;;;;;;4999862;28;20049;-73
2021/03/08 10:01:22;;;;;;;13.63;9.77;;;25.80;23.80;;;;;;4997257;28;20088;-72
2021/03/08 10:03:50;;;;;;;12.05;9.07;;;25.90;23.90;;;;;;4995540;28;20574;-72
2021/03/08 10:06:34;;;;;;;9.88;8.23;;;25.90;23.90;;;;;;4999040;28;20042;-72
2021/03/08 10:09:19;;;;;;;9.40;7.97;;;26.00;23.90;;;;;;5000569;28;20069;-70
2021/03/08 10:11:46;;;;;;;11.13;7.90;;;26.00;23.90;;;;;;4998531;28;20046;-72
2021/03/08 10:14:27;;;;;;;9.82;7.80;;;26.10;23.90;;;;;;4999049;28;20129;-71
2021/03/08 10:17:09;;;;;;;11.10;8.05;;;26.20;23.90;;;;;;4984298;28;20112;-73
2021/03/08 10:19:36;;;;;;;8.30;6.80;;;26.20;23.70;;;;;;5002206;28;20045;-73
2021/03/08 10:22:05;;;;;;;9.32;7.38;;;26.20;23.60;;;;;;4983228;28;20069;-72
2021/03/08 10:24:39;;;;;;;8.27;6.93;;;26.30;23.70;;;;;;4999804;28;20058;-72
2021/03/08 10:27:11;;;;;;;10.65;7.20;;;26.30;23.60;;;;;;4998199;28;20057;-69
2021/03/08 10:29:41;;;;;;;14.75;7.45;;;26.30;23.60;;;;;;5007269;28;20090;-72
2021/03/08 10:32:13;;;;;;;8.75;7.00;;;26.30;23.70;;;;;;4994525;28;20069;-72
2021/03/08 10:34:41;;;;;;;7.95;7.00;;;26.30;23.70;;;;;;4997881;28;20176;-71
2021/03/08 10:37:15;;;;;;;7.30;6.30;;;26.30;23.80;;;;;;4992048;28;20159;-71
2021/03/08 10:39:42;;;;;;;9.40;7.13;;;26.20;23.80;;;;;;4998985;28;20073;-71
2021/03/08 10:42:10;;;;;;;7.38;6.53;;;26.20;23.80;;;;;;4998529;28;20057;-73
2021/03/08 10:44:37;;;;;;;9.63;7.80;;;26.20;23.80;;;;;;5002124;28;20070;-71
2021/03/08 10:47:16;;;;;;;8.35;6.90;;;26.20;22.00;;;;;;4992386;28;20416;-72
2021/03/08 10:49:51;;;;;;;9.77;6.35;;;26.00;22.60;;;;;;5001002;28;20081;-74
2021/03/08 10:52:20;;;;;;;10.43;6.53;;;25.90;23.20;;;;;;5001968;28;20046;-73
2021/03/08 10:54:47;;;;;;;10.00;6.40;;;25.90;23.40;;;;;;5000171;28;20152;-73
2021/03/08 10:57:15;;;;;;;8.63;6.32;;;25.80;23.50;;;;;;4996513;28;20515;-73
2021/03/08 10:59:49;;;;;;;8.90;5.95;;;25.80;23.60;;;;;;4993392;28;20054;-75
2021/03/08 11:02:18;;;;;;;5.95;5.38;;;25.80;23.70;;;;;;4980991;28;20046;-72
2021/03/08 11:04:46;;;;;;;7.47;5.75;;;25.80;23.90;;;;;;4999965;28;20045;-73
2021/03/08 11:07:34;;;;;;;8.00;5.70;;;25.80;24.00;;;;;;4996254;28;20064;-71
2021/03/08 11:10:03;;;;;;;8.82;5.78;;;25.70;24.10;;;;;;4998570;28;20082;-73
2021/03/08 11:12:32;;;;;;;6.87;5.90;;;25.70;24.20;;;;;;4991259;28;20049;-69
2021/03/08 11:15:00;;;;;;;7.43;5.78;;;25.70;24.30;;;;;;5003939;28;20046;-69
2021/03/08 11:17:41;;;;;;;8.73;5.45;;;25.70;24.20;;;;;;5004164;28;20693;-77
2021/03/08 11:20:15;;;;;;;7.22;5.93;;;25.70;24.20;;;;;;5007062;28;20038;-72
2021/03/08 11:23:08;;;;;;;8.32;5.72;;;25.70;24.20;;;;;;4985611;28;20078;-72
2021/03/08 11:25:41;;;;;;;7.22;6.07;;;25.70;24.00;;;;;;5004255;28;20418;-75
2021/03/08 11:28:16;;;;;;;8.32;5.63;;;25.60;23.80;;;;;;5006963;28;20483;-76
2021/03/08 11:30:51;;;;;;;8.70;5.13;;;25.60;23.80;;;;;;5004841;28;20046;-73
2021/03/08 11:33:19;;;;;;;7.20;4.65;;;25.50;23.80;;;;;;5005253;28;20065;-74
2021/03/08 11:35:53;;;;;;;7.68;4.93;;;25.60;23.90;;;;;;5002977;28;20056;-73
2021/03/08 11:38:25;;;;;;;6.80;5.32;;;25.50;23.70;;;;;;5001245;28;20041;-74
2021/03/08 11:40:53;;;;;;;7.80;4.72;;;25.50;23.70;;;;;;5003671;28;20058;-66
2021/03/08 11:43:25;;;;;;;11.30;6.80;;;25.40;23.50;;;;;;5002179;28;20069;-76
2021/03/08 11:45:52;;;;;;;8.02;5.78;;;25.40;21.70;;;;;;5001829;28;20050;-75
2021/03/08 11:48:25;;;;;;;6.82;5.40;;;25.20;22.20;;;;;;5003957;28;20077;-66
2021/03/08 11:50:52;;;;;;;6.32;4.97;;;25.10;22.60;;;;;;5002838;28;20636;-65
2021/03/08 11:53:19;;;;;;;7.75;5.13;;;25.00;22.60;;;;;;5003243;28;20064;-65
2021/03/08 11:55:47;;;;;;;6.20;5.18;;;25.00;22.90;;;;;;5000765;28;20057;-68
2021/03/08 11:58:17;;;;;;;5.30;4.22;;;25.00;23.20;;;;;;5003279;28;20048;-69
2021/03/08 12:00:44;;;;;;;5.80;4.03;;;25.00;23.30;;;;;;5002114;28;20081;-68
2021/03/08 12:03:10;;;;;;;8.30;4.75;;;25.00;23.30;;;;;;5000037;28;20121;-65
2021/03/08 12:05:37;;;;;;;5.22;4.22;;;25.00;23.40;;;;;;5000227;28;20164;-67
2021/03/08 12:08:19;;;;;;;5.55;4.10;;;24.90;23.40;;;;;;5002148;28;20072;-64
2021/03/08 12:10:45;;;;;;;5.22;4.43;;;24.90;23.50;;;;;;5002544;28;20172;-64
2021/03/08 12:13:15;;;;;;;5.50;3.55;;;24.90;23.60;;;;;;4997854;28;20038;-68
2021/03/08 12:15:42;;;;;;;4.68;3.47;;;25.00;23.70;;;;;;4986591;28;20053;-69
2021/03/08 12:18:09;;;;;;;4.68;3.97;;;24.90;23.70;;;;;;4999107;28;20054;-65
2021/03/08 12:20:36;;;;;;;5.65;3.85;;;25.00;23.70;;;;;;5005136;28;20111;-65
2021/03/08 12:23:03;;;;;;;4.57;3.45;;;25.00;23.80;;;;;;5002256;28;20138;-64
2021/03/08 12:25:30;;;;;;;5.43;3.67;;;24.90;23.80;;;;;;4996327;28;20089;-63
2021/03/08 12:27:56;;;;;;;8.27;4.38;;;25.00;23.90;;;;;;4997179;28;20060;-64
2021/03/08 12:30:24;;;;;;;5.85;3.53;;;25.00;23.90;;;;;;5001926;28;20141;-66
2021/03/08 12:32:51;;;;;;;4.93;3.90;;;25.00;23.90;;;;;;4982931;28;20145;-66
2021/03/08 12:35:18;;;;;;;3.80;3.40;;;25.00;23.90;;;;;;4989202;28;20054;-63
2021/03/08 12:37:45;;;;;;;5.65;3.80;;;25.00;23.90;;;;;;4999558;28;20073;-69
2021/03/08 12:40:12;;;;;;;4.60;3.47;;;25.00;23.90;;;;;;4998873;28;20317;-69
2021/03/08 12:42:40;;;;;;;4.07;3.55;;;25.00;23.90;;;;;;4999248;28;20056;-65
2021/03/08 12:45:08;;;;;;;3.42;3.13;;;24.90;23.90;;;;;;5001246;28;20049;-61
2021/03/08 12:47:35;;;;;;;5.43;3.42;;;24.90;24.00;;;;;;5001954;28;20163;-62
2021/03/08 12:50:03;;;;;;;3.92;3.42;;;24.90;24.00;;;;;;4996505;28;20058;-63
2021/03/08 12:52:32;;;;;;;5.20;3.38;;;24.90;24.10;;;;;;4998667;28;20133;-63
2021/03/08 12:55:16;;;;;;;4.35;3.50;;;24.90;24.10;;;;;;5000754;28;20089;-62
2021/03/08 12:57:42;;;;;;;3.88;3.47;;;25.00;24.20;;;;;;4998379;28;20069;-62
2021/03/08 13:00:10;;;;;;;3.55;3.00;;;24.90;24.10;;;;;;4979610;28;20053;-62
2021/03/08 13:02:37;;;;;;;4.07;3.22;;;24.90;24.20;;;;;;4996401;28;20513;-66
2021/03/08 13:05:05;;;;;;;3.58;3.25;;;24.90;24.20;;;;;;4998694;28;20050;-62
2021/03/08 13:07:33;;;;;;;3.35;3.05;;;24.90;24.10;;;;;;4977744;28;20108;-65
2021/03/08 13:09:59;;;;;;;3.22;2.92;;;24.90;24.10;;;;;;4988049;28;20052;-63
2021/03/08 13:12:26;;;;;;;3.05;2.78;;;24.90;24.10;;;;;;4998251;28;20202;-63
2021/03/08 13:14:53;;;;;;;3.03;2.78;;;24.90;24.10;;;;;;5000507;28;20141;-63
2021/03/08 13:17:43;;;;;;;3.63;2.95;;;24.90;24.10;;;;;;4998355;28;20057;-65
2021/03/08 13:20:15;;;;;;;4.88;2.92;;;24.90;24.10;;;;;;5000422;28;20045;-66
2021/03/08 13:22:44;;;;;;;3.90;2.85;;;24.90;24.10;;;;;;4998508;28;20050;-67
2021/03/08 13:25:12;;;;;;;4.20;3.03;;;24.80;24.10;;;;;;4976576;28;20172;-66
2021/03/08 13:27:39;;;;;;;5.60;3.08;;;24.80;24.20;;;;;;5001745;28;20108;-65
2021/03/08 13:30:09;;;;;;;3.95;2.72;;;24.90;24.30;;;;;;4998757;28;20143;-67
2021/03/08 13:32:36;;;;;;;4.00;3.00;;;24.80;24.20;;;;;;4997917;28;20085;-67
2021/03/08 13:35:04;;;;;;;9.65;3.58;;;24.90;24.20;;;;;;5002368;28;20064;-66
2021/03/08 13:37:31;;;;;;;4.32;3.17;;;24.90;24.10;;;;;;5000363;28;20129;-67